Time;durP1;ratioP1;P1;durP2;ratioP2;P2;SDS_P1;SDS_P2;PMS_P1;PMS_P2;Temp;Humidity;BMP_temperature;BMP_pressure;BME280_temperature;BME280_humidity;BME280_pressure;Samples;Min_cycle;Max_cycle;Signal;HPM_P1;HPM_P2
2022/10/22 00:00:59;;;;;;;0.80;0.70;;;;;;;16.39;88.53;98433.22;5011116;27;102994;-73
2022/10/22 00:03:27;;;;;;;2.00;0.60;;;;;;;16.24;88.57;98429.41;5009122;27;103927;-73
2022/10/22 00:05:55;;;;;;;1.90;0.70;;;;;;;16.09;88.92;98438.91;5009318;27;107515;-74
2022/10/22 00:08:22;;;;;;;1.63;0.50;;;;;;;15.92;88.06;98429.06;5009072;27;104472;-73
2022/10/22 00:10:51;;;;;;;1.00;0.60;;;;;;;16.02;88.94;98432.53;5011887;28;102903;-73
2022/10/22 00:13:21;;;;;;;1.77;0.60;;;;;;;15.97;88.57;98424.97;5011562;28;102824;-73
2022/10/22 00:15:49;;;;;;;1.43;0.60;;;;;;;15.81;88.79;98421.31;5013547;28;103638;-73
2022/10/22 00:18:17;;;;;;;1.33;0.40;;;;;;;15.82;88.47;98417.66;5013923;28;103264;-73
2022/10/22 00:20:45;;;;;;;0.60;0.60;;;;;;;15.92;87.71;98418.41;5015036;28;102908;-73
2022/10/22 00:23:12;;;;;;;1.93;0.77;;;;;;;15.72;88.80;98417.72;5008710;27;104509;-74
2022/10/22 00:25:40;;;;;;;0.50;0.30;;;;;;;15.86;88.31;98413.72;5007936;27;105075;-74
2022/10/22 00:28:10;;;;;;;0.50;0.50;;;;;;;15.68;88.99;98410.19;5008567;27;103504;-73
2022/10/22 00:30:39;;;;;;;0.40;0.40;;;;;;;15.91;87.92;98414.09;5006262;27;102781;-74
2022/10/22 00:33:07;;;;;;;1.50;0.60;;;;;;;15.79;88.77;98413.47;5007364;27;102952;-74
2022/10/22 00:35:35;;;;;;;1.07;0.40;;;;;;;15.94;87.94;98432.44;5008945;27;104036;-73
2022/10/22 00:38:03;;;;;;;0.40;0.40;;;;;;;15.88;88.06;98427.72;5009255;27;103311;-74
2022/10/22 00:40:31;;;;;;;0.67;0.43;;;;;;;15.99;88.12;98430.16;5009836;27;102695;-74
2022/10/22 00:42:59;;;;;;;0.77;0.50;;;;;;;15.90;88.17;98436.38;5012744;27;103213;-75
2022/10/22 00:45:27;;;;;;;0.40;0.40;;;;;;;15.79;88.72;98432.13;5009442;27;104494;-74
2022/10/22 00:48:00;;;;;;;1.43;0.40;;;;;;;15.91;89.09;98444.25;5009619;27;103381;-73
2022/10/22 00:50:31;;;;;;;0.57;0.40;;;;;;;15.78;90.26;98442.91;5023956;27;102723;-73
2022/10/22 00:53:00;;;;;;;2.87;0.50;;;;;;;15.50;90.76;98439.41;5008291;27;103445;-73
2022/10/22 00:55:29;;;;;;;0.50;0.40;;;;;;;15.69;90.78;98439.31;5008739;27;103828;-73
2022/10/22 00:57:59;;;;;;;1.50;0.60;;;;;;;15.60;90.35;98418.94;5008060;27;103198;-74
2022/10/22 01:00:27;;;;;;;1.37;0.53;;;;;;;15.66;90.98;98418.34;5011532;27;103217;-73
2022/10/22 01:02:57;;;;;;;0.50;0.50;;;;;;;15.79;90.32;98408.16;5008889;27;103497;-73
2022/10/22 01:05:27;;;;;;;1.03;0.70;;;;;;;15.65;90.60;98409.50;5012754;27;103511;-73
2022/10/22 01:07:57;;;;;;;3.73;0.60;;;;;;;15.61;90.67;98410.78;5014965;27;103382;-74
2022/10/22 01:10:38;;;;;;;1.50;0.53;;;;;;;15.78;90.08;98421.59;5013794;27;104284;-73
2022/10/22 01:13:21;;;;;;;0.90;0.40;;;;;;;15.63;89.90;98390.16;5016049;27;103185;-73
2022/10/22 01:16:00;;;;;;;0.50;0.50;;;;;;;15.42;91.51;98392.22;5014767;27;103342;-73
2022/10/22 01:18:37;;;;;;;1.60;0.50;;;;;;;15.36;91.44;98398.13;5014305;27;103225;-73
2022/10/22 01:21:18;;;;;;;2.40;0.50;;;;;;;15.42;91.41;98386.91;5012868;27;102658;-73
2022/10/22 01:24:23;;;;;;;0.80;0.50;;;;;;;15.52;91.22;98358.41;5012629;27;103061;-73
2022/10/22 01:27:02;;;;;;;0.40;0.40;;;;;;;15.48;91.15;98359.72;5012285;27;104156;-73
2022/10/22 01:29:37;;;;;;;0.80;0.43;;;;;;;15.74;90.00;98374.97;5013676;27;103276;-73
2022/10/22 01:32:09;;;;;;;1.00;0.40;;;;;;;15.71;90.08;98383.25;5008722;27;102881;-73
2022/10/22 01:34:40;;;;;;;1.67;0.60;;;;;;;15.89;88.85;98384.94;5012314;27;103042;-74
2022/10/22 01:37:10;;;;;;;0.33;0.33;;;;;;;15.89;89.23;98398.25;5008768;27;103924;-74
2022/10/22 01:39:40;;;;;;;0.80;0.50;;;;;;;15.74;89.78;98412.25;5012411;27;103214;-73
2022/10/22 01:42:08;;;;;;;1.37;0.50;;;;;;;15.72;89.18;98417.72;5010531;27;102672;-73
2022/10/22 01:44:37;;;;;;;1.03;0.60;;;;;;;15.76;88.98;98423.59;5010687;27;104281;-73
2022/10/22 01:47:15;;;;;;;1.43;0.40;;;;;;;15.95;88.17;98416.31;5010013;27;104199;-73
2022/10/22 01:50:10;;;;;;;1.07;0.60;;;;;;;16.02;87.60;98416.53;5013553;27;103195;-73
2022/10/22 01:52:51;;;;;;;1.20;0.50;;;;;;;15.87;88.54;98418.03;5009588;27;102881;-72
2022/10/22 01:55:29;;;;;;;1.40;0.50;;;;;;;15.88;89.21;98409.06;5011390;27;104150;-73
2022/10/22 01:58:17;;;;;;;0.97;0.47;;;;;;;16.09;87.82;98414.94;5010773;27;103290;-72
2022/10/22 02:00:53;;;;;;;0.77;0.50;;;;;;;15.95;87.93;98418.13;5010497;27;103425;-74
2022/10/22 02:03:26;;;;;;;0.77;0.60;;;;;;;15.88;88.74;98427.72;5008710;27;103776;-73
2022/10/22 02:06:01;;;;;;;0.93;0.30;;;;;;;16.05;87.83;98434.91;5011345;27;103742;-73
2022/10/22 02:08:32;;;;;;;1.57;0.57;;;;;;;15.89;88.52;98429.38;5010966;27;103377;-73
2022/10/22 02:11:01;;;;;;;0.87;0.70;;;;;;;15.86;88.53;98437.69;5010213;27;103395;-74
2022/10/22 02:13:34;;;;;;;0.97;0.63;;;;;;;15.87;88.85;98448.19;5009089;27;102736;-73
2022/10/22 02:16:09;;;;;;;1.07;0.50;;;;;;;15.70;89.09;98456.13;5008930;27;104060;-73
2022/10/22 02:18:43;;;;;;;1.57;0.63;;;;;;;16.01;87.66;98455.66;5011732;27;103334;-72
2022/10/22 02:21:11;;;;;;;0.80;0.50;;;;;;;16.18;87.07;98430.84;5009668;27;103438;-73
2022/10/22 02:23:39;;;;;;;0.80;0.53;;;;;;;16.25;87.20;98418.59;5012895;27;102845;-73
2022/10/22 02:26:16;;;;;;;0.70;0.47;;;;;;;16.30;87.23;98428.81;5010119;27;103123;-73
2022/10/22 02:28:53;;;;;;;0.77;0.57;;;;;;;16.28;87.58;98432.63;5010101;27;105025;-73
2022/10/22 02:31:26;;;;;;;0.60;0.60;;;;;;;16.13;87.14;98438.47;5010710;27;103409;-73
2022/10/22 02:33:58;;;;;;;2.07;0.90;;;;;;;16.21;87.11;98435.03;5007661;27;102939;-73
2022/10/22 02:36:26;;;;;;;1.23;0.50;;;;;;;16.16;87.01;98434.66;5029970;27;103069;-73
2022/10/22 02:38:54;;;;;;;1.93;0.70;;;;;;;16.07;87.09;98436.41;5009631;27;103872;-73
2022/10/22 02:41:23;;;;;;;2.17;0.50;;;;;;;16.03;87.75;98442.19;5012681;27;103502;-73
2022/10/22 02:43:55;;;;;;;0.57;0.50;;;;;;;16.11;87.23;98451.09;5013890;27;102739;-73
2022/10/22 02:46:26;;;;;;;1.13;0.50;;;;;;;16.17;86.84;98441.66;5014623;28;104754;-73
2022/10/22 02:48:56;;;;;;;3.07;0.57;;;;;;;15.98;87.97;98439.13;5020920;27;104264;-74
2022/10/22 02:51:23;;;;;;;0.97;0.50;;;;;;;16.06;88.32;98447.22;5021972;27;103209;-72
2022/10/22 02:53:53;;;;;;;0.70;0.50;;;;;;;16.01;89.31;98444.16;5009862;27;102671;-74
2022/10/22 02:56:21;;;;;;;0.80;0.60;;;;;;;16.14;88.51;98428.66;5011296;27;104424;-73
2022/10/22 02:58:49;;;;;;;0.40;0.40;;;;;;;16.06;88.90;98442.72;5019144;27;103102;-73
2022/10/22 03:01:17;;;;;;;0.40;0.40;;;;;;;16.07;88.68;98443.56;5017851;27;103191;-73
2022/10/22 03:03:46;;;;;;;0.47;0.47;;;;;;;16.12;88.56;98439.47;5019339;27;103142;-73
2022/10/22 03:06:14;;;;;;;1.47;0.60;;;;;;;16.06;88.38;98437.41;5015553;27;102821;-73
2022/10/22 03:08:45;;;;;;;2.33;0.50;;;;;;;16.01;88.49;98425.53;5015546;28;104046;-73
2022/10/22 03:11:13;;;;;;;1.00;0.60;;;;;;;15.93;88.36;98415.63;5014137;28;103232;-73
2022/10/22 03:13:41;;;;;;;1.20;0.70;;;;;;;15.98;89.21;98417.81;5031083;27;102702;-73
2022/10/22 03:16:09;;;;;;;1.57;0.50;;;;;;;16.04;88.80;98403.91;5016581;27;104110;-74
2022/10/22 03:18:36;;;;;;;1.83;0.50;;;;;;;16.04;88.06;98423.41;5013122;28;104498;-73
2022/10/22 03:21:09;;;;;;;0.43;0.43;;;;;;;16.02;87.99;98424.53;5016485;27;103245;-73
2022/10/22 03:23:39;;;;;;;0.40;0.40;;;;;;;16.03;88.42;98415.53;5011207;28;102707;-74
2022/10/22 03:26:08;;;;;;;0.63;0.40;;;;;;;16.09;87.97;98398.94;5015166;28;102599;-74
2022/10/22 03:28:36;;;;;;;1.63;0.43;;;;;;;15.95;88.34;98418.13;5012686;27;104261;-74
2022/10/22 03:31:04;;;;;;;1.77;1.30;;;;;;;15.99;88.95;98406.19;5014793;28;103844;-74
2022/10/22 03:33:32;;;;;;;0.80;0.60;;;;;;;15.83;89.03;98411.34;5015059;27;102675;-74
2022/10/22 03:36:00;;;;;;;1.13;0.63;;;;;;;15.94;88.27;98408.47;5014489;28;104009;-73
2022/10/22 03:38:30;;;;;;;0.83;0.60;;;;;;;15.93;88.71;98404.13;5013423;28;104180;-73
2022/10/22 03:40:58;;;;;;;0.90;0.67;;;;;;;16.06;88.24;98404.56;5014524;28;104469;-73
2022/10/22 03:43:27;;;;;;;0.90;0.60;;;;;;;15.97;88.23;98397.53;5015662;28;102655;-73
2022/10/22 03:45:57;;;;;;;4.20;0.80;;;;;;;15.95;88.44;98397.66;5012808;28;102686;-74
2022/10/22 03:48:25;;;;;;;1.33;0.70;;;;;;;15.99;88.46;98392.88;5015224;27;103477;-73
2022/10/22 03:50:52;;;;;;;1.00;0.63;;;;;;;16.11;88.12;98394.31;5013179;27;103298;-73
2022/10/22 03:53:20;;;;;;;2.40;0.90;;;;;;;15.98;88.37;98407.16;5015705;27;102671;-74
2022/10/22 03:55:49;;;;;;;0.50;0.43;;;;;;;16.12;87.91;98409.31;5010540;28;102997;-74
2022/10/22 03:58:17;;;;;;;0.87;0.73;;;;;;;15.94;88.59;98422.63;5006319;27;103315;-73
2022/10/22 04:00:45;;;;;;;2.03;0.93;;;;;;;15.84;88.85;98429.00;5007425;28;103320;-73
2022/10/22 04:03:12;;;;;;;1.67;0.70;;;;;;;15.84;89.36;98421.00;5013969;28;102619;-73
2022/10/22 04:05:40;;;;;;;0.90;0.50;;;;;;;15.56;89.67;98423.69;5017216;27;103713;-73
2022/10/22 04:08:08;;;;;;;0.80;0.70;;;;;;;15.74;88.77;98415.75;5042978;27;103410;-74
2022/10/22 04:10:36;;;;;;;1.37;0.60;;;;;;;15.81;88.32;98416.81;5007596;28;103397;-74
2022/10/22 04:13:06;;;;;;;0.57;0.37;;;;;;;15.95;88.28;98428.78;5013160;27;102756;-74
2022/10/22 04:15:36;;;;;;;1.80;0.50;;;;;;;16.00;87.71;98438.00;5006813;28;104143;-74
2022/10/22 04:18:04;;;;;;;1.33;0.47;;;;;;;15.72;88.69;98465.66;5012485;28;103337;-74
2022/10/22 04:20:32;;;;;;;0.50;0.50;;;;;;;15.95;87.99;98439.44;5013270;28;103214;-74
2022/10/22 04:23:00;;;;;;;0.70;0.50;;;;;;;15.94;87.83;98443.09;5011812;27;103134;-75
2022/10/22 04:25:29;;;;;;;1.90;0.50;;;;;;;15.94;87.43;98448.44;5012133;28;102775;-73
2022/10/22 04:27:57;;;;;;;0.77;0.60;;;;;;;15.91;87.80;98446.06;5010976;28;104146;-74
2022/10/22 04:30:27;;;;;;;0.83;0.50;;;;;;;16.02;87.58;98443.19;5013221;28;103255;-74
2022/10/22 04:32:55;;;;;;;0.70;0.60;;;;;;;16.03;87.44;98442.19;5028724;27;102892;-74
2022/10/22 04:35:22;;;;;;;1.53;1.13;;;;;;;15.99;87.42;98431.00;5019623;28;102947;-74
2022/10/22 04:37:56;;;;;;;1.67;0.40;;;;;;;16.01;87.67;98428.19;5017336;27;103265;-75
2022/10/22 04:40:23;;;;;;;1.03;0.57;;;;;;;15.58;89.46;98432.38;5044546;27;103361;-75
2022/10/22 04:42:51;;;;;;;0.67;0.60;;;;;;;15.70;89.23;98440.16;5008217;28;102743;-74
2022/10/22 04:45:19;;;;;;;4.23;0.90;;;;;;;15.09;91.51;98438.03;5013029;28;102592;-72
2022/10/22 04:47:48;;;;;;;0.97;0.70;;;;;;;15.04;92.14;98443.78;5017345;27;103974;-71
2022/10/22 04:50:16;;;;;;;0.63;0.43;;;;;;;15.20;92.83;98437.84;5017021;28;103247;-72
2022/10/22 04:52:44;;;;;;;0.97;0.60;;;;;;;14.86;92.99;98450.00;5015956;28;102700;-73
2022/10/22 04:55:12;;;;;;;0.63;0.53;;;;;;;15.11;93.04;98454.69;5022970;28;103841;-72
2022/10/22 04:57:39;;;;;;;0.93;0.60;;;;;;;15.23;92.21;98447.38;5021675;28;103366;-72
2022/10/22 05:00:09;;;;;;;0.90;0.50;;;;;;;15.05;93.29;98460.56;5021225;28;103187;-72
2022/10/22 05:02:36;;;;;;;1.53;0.90;;;;;;;15.34;92.08;98455.16;5017225;27;102702;-73
2022/10/22 05:05:06;;;;;;;2.30;1.10;;;;;;;15.11;91.43;98454.69;5022293;28;103577;-72
2022/10/22 05:07:36;;;;;;;2.20;0.70;;;;;;;14.74;95.63;98456.44;5016944;28;103271;-72
2022/10/22 05:10:04;;;;;;;2.53;1.13;;;;;;;14.83;95.03;98460.91;5015404;28;103224;-71
2022/10/22 05:12:35;;;;;;;2.60;0.87;;;;;;;15.19;93.22;98460.13;5016820;28;102893;-71
2022/10/22 05:15:03;;;;;;;0.70;0.57;;;;;;;15.45;92.19;98468.28;5016706;28;102747;-71
2022/10/22 05:17:30;;;;;;;4.23;0.70;;;;;;;15.41;90.45;98467.72;5016435;28;103418;-70
2022/10/22 05:19:58;;;;;;;1.73;0.57;;;;;;;15.46;90.06;98465.53;5019971;28;103288;-73
2022/10/22 05:22:27;;;;;;;0.50;0.50;;;;;;;15.52;90.28;98470.22;5008945;28;103868;-74
2022/10/22 05:24:55;;;;;;;0.60;0.50;;;;;;;15.68;89.79;98466.09;5020034;28;104012;-73
2022/10/22 05:27:24;;;;;;;1.60;0.57;;;;;;;15.64;89.86;98471.72;5017193;28;104243;-73
2022/10/22 05:29:52;;;;;;;2.33;0.87;;;;;;;15.34;91.46;98479.97;5014183;27;103134;-71
2022/10/22 05:32:19;;;;;;;0.97;0.70;;;;;;;15.27;90.90;98489.50;5019874;28;102879;-76
2022/10/22 05:34:47;;;;;;;1.27;0.60;;;;;;;15.40;90.01;98483.88;5022462;28;103867;-70
2022/10/22 05:37:15;;;;;;;1.73;0.70;;;;;;;15.53;89.60;98501.22;5020870;28;104099;-69
2022/10/22 05:39:44;;;;;;;1.23;0.80;;;;;;;15.66;89.18;98499.03;5018601;28;103197;-71
2022/10/22 05:42:12;;;;;;;3.80;0.57;;;;;;;15.58;89.83;98506.91;5019767;28;102711;-70
2022/10/22 05:44:39;;;;;;;2.27;0.80;;;;;;;15.56;89.91;98516.91;5018342;28;103769;-70
2022/10/22 05:47:08;;;;;;;1.50;0.80;;;;;;;15.56;90.72;98524.88;5016794;28;103405;-70
2022/10/22 05:49:37;;;;;;;1.30;0.77;;;;;;;15.75;90.17;98523.13;5018578;28;103379;-71
2022/10/22 05:52:05;;;;;;;0.60;0.60;;;;;;;15.73;89.96;98535.72;5017535;28;102588;-72
2022/10/22 05:54:33;;;;;;;1.20;0.70;;;;;;;15.70;90.56;98530.69;5018108;28;102613;-72
2022/10/22 05:57:02;;;;;;;1.17;0.57;;;;;;;15.85;90.05;98546.06;5011958;28;104538;-72
2022/10/22 05:59:30;;;;;;;0.90;0.60;;;;;;;15.91;89.82;98555.28;5016538;28;103255;-72
2022/10/22 06:01:58;;;;;;;0.40;0.40;;;;;;;15.95;89.85;98559.31;5015409;28;102567;-71
2022/10/22 06:04:28;;;;;;;0.70;0.53;;;;;;;15.93;89.62;98561.31;5018243;28;103666;-71
2022/10/22 06:06:56;;;;;;;0.50;0.50;;;;;;;15.88;89.26;98563.56;5018938;28;103918;-72
2022/10/22 06:09:27;;;;;;;2.67;0.70;;;;;;;15.47;91.56;98557.69;5018178;28;103271;-72
2022/10/22 06:11:55;;;;;;;0.83;0.80;;;;;;;15.21;93.22;98566.44;5015850;28;103262;-72
2022/10/22 06:14:26;;;;;;;1.97;0.70;;;;;;;15.29;93.96;98567.38;5020125;28;102792;-72
2022/10/22 06:16:54;;;;;;;3.30;0.67;;;;;;;15.27;92.85;98574.66;5018954;27;103167;-72
2022/10/22 06:19:24;;;;;;;1.60;0.60;;;;;;;15.07;94.37;98581.00;5019988;28;103278;-71
2022/10/22 06:21:53;;;;;;;3.73;0.90;;;;;;;14.60;98.38;98590.66;5017308;28;102947;-72
2022/10/22 06:24:20;;;;;;;2.50;0.70;;;;;;;14.93;96.80;98594.75;5018820;28;102876;-69
2022/10/22 06:26:49;;;;;;;0.60;0.60;;;;;;;15.39;94.69;98589.50;5017981;28;103404;-69
2022/10/22 06:29:17;;;;;;;1.77;0.80;;;;;;;15.59;93.60;98590.31;5012746;28;104329;-69
2022/10/22 06:31:46;;;;;;;2.30;0.73;;;;;;;15.42;93.25;98591.88;5015575;28;103213;-69
2022/10/22 06:34:17;;;;;;;1.23;0.60;;;;;;;15.54;93.34;98600.56;5018037;28;102742;-69
2022/10/22 06:36:46;;;;;;;0.70;0.70;;;;;;;15.73;92.04;98599.66;5015028;28;103286;-69
2022/10/22 06:39:15;;;;;;;2.20;0.80;;;;;;;15.64;91.47;98612.84;5017528;27;103259;-69
2022/10/22 06:41:43;;;;;;;1.23;1.13;;;;;;;15.74;91.07;98617.31;5014358;28;102561;-69
2022/10/22 06:44:19;;;;;;;1.17;0.80;;;;;;;15.73;91.70;98626.28;5017049;27;104169;-75
2022/10/22 06:46:51;;;;;;;1.00;0.90;;;;;;;15.22;95.43;98626.63;5013966;28;102909;-74
2022/10/22 06:49:20;;;;;;;3.37;1.07;;;;;;;14.93;95.86;98626.66;5011969;28;103238;-69
2022/10/22 06:51:50;;;;;;;1.10;0.90;;;;;;;15.15;95.44;98631.69;5015020;28;102996;-69
2022/10/22 06:54:18;;;;;;;1.37;0.90;;;;;;;14.79;96.08;98629.72;5014445;28;104194;-69
2022/10/22 06:56:45;;;;;;;1.00;0.87;;;;;;;15.35;95.31;98646.69;5011625;27;104263;-70
2022/10/22 06:59:13;;;;;;;5.77;0.90;;;;;;;14.73;95.34;98636.44;5016178;28;103322;-69
2022/10/22 07:01:41;;;;;;;1.43;0.60;;;;;;;15.37;92.34;98642.03;5011991;27;102848;-68
2022/10/22 07:04:11;;;;;;;1.60;0.70;;;;;;;15.63;90.98;98642.31;5015119;27;103268;-69
2022/10/22 07:06:39;;;;;;;0.83;0.80;;;;;;;15.58;90.90;98653.38;5013849;28;104282;-69
2022/10/22 07:09:07;;;;;;;2.50;0.80;;;;;;;15.45;92.85;98662.63;5015180;28;103252;-70
2022/10/22 07:11:40;;;;;;;1.83;0.90;;;;;;;15.55;92.34;98666.97;5013062;28;103024;-69
2022/10/22 07:14:08;;;;;;;1.13;0.73;;;;;;;15.91;91.11;98669.84;5017764;27;103836;-71
2022/10/22 07:16:36;;;;;;;2.27;0.77;;;;;;;16.01;90.17;98668.81;5018946;28;103405;-72
2022/10/22 07:19:05;;;;;;;0.87;0.70;;;;;;;16.23;90.74;98679.13;5017226;27;103190;-71
2022/10/22 07:21:34;;;;;;;0.90;0.70;;;;;;;16.43;90.02;98684.34;5021386;27;102535;-72
2022/10/22 07:24:02;;;;;;;2.37;0.90;;;;;;;16.43;88.61;98679.88;5022901;28;103683;-72
2022/10/22 07:26:31;;;;;;;1.50;0.90;;;;;;;16.47;87.39;98681.25;5016433;27;103379;-72
2022/10/22 07:28:59;;;;;;;3.00;0.93;;;;;;;15.70;93.10;98675.34;5014745;28;103194;-71
2022/10/22 07:31:27;;;;;;;2.37;0.93;;;;;;;15.76;94.28;98676.59;5019267;27;103148;-70
2022/10/22 07:33:58;;;;;;;1.53;0.90;;;;;;;15.47;95.02;98680.16;5017638;27;103091;-69
2022/10/22 07:36:26;;;;;;;1.10;1.00;;;;;;;15.68;94.70;98687.13;5015161;27;103483;-70
2022/10/22 07:38:57;;;;;;;1.43;0.93;;;;;;;15.85;93.33;98689.06;5011558;27;103236;-70
2022/10/22 07:41:26;;;;;;;0.90;0.70;;;;;;;16.29;92.56;98693.69;5014722;28;102993;-70
2022/10/22 07:43:54;;;;;;;0.77;0.60;;;;;;;16.61;90.81;98694.13;5011845;27;103838;-70
2022/10/22 07:46:22;;;;;;;1.40;1.20;;;;;;;16.78;90.17;98693.34;5008502;28;103368;-71
2022/10/22 07:48:52;;;;;;;0.90;0.60;;;;;;;16.86;89.06;98694.41;5019161;28;103195;-71
2022/10/22 07:51:20;;;;;;;0.70;0.70;;;;;;;16.85;88.75;98701.56;5016525;28;102680;-71
2022/10/22 07:53:48;;;;;;;1.90;0.90;;;;;;;16.99;88.68;98701.03;5018946;28;102699;-70
2022/10/22 07:56:19;;;;;;;1.50;1.00;;;;;;;17.09;88.30;98703.66;5014985;27;103309;-69
2022/10/22 07:58:47;;;;;;;1.10;1.00;;;;;;;17.29;88.03;98699.84;5015591;28;103293;-68
2022/10/22 08:01:15;;;;;;;1.70;1.20;;;;;;;17.12;87.01;98698.84;5016288;28;102669;-69
2022/10/22 08:03:43;;;;;;;1.67;0.90;;;;;;;17.58;85.98;98705.81;5019718;28;102639;-73
2022/10/22 08:06:13;;;;;;;1.27;1.00;;;;;;;17.60;84.78;98697.66;5016741;28;104077;-69
2022/10/22 08:08:42;;;;;;;1.33;1.10;;;;;;;17.78;84.11;98706.47;5012553;27;103275;-70
2022/10/22 08:11:10;;;;;;;2.30;0.90;;;;;;;18.50;82.79;98708.75;5014581;28;102744;-72
2022/10/22 08:13:39;;;;;;;1.30;1.20;;;;;;;18.81;80.07;98704.53;5013020;28;104126;-70
2022/10/22 08:16:12;;;;;;;3.58;0.80;;;;;;;19.52;77.01;98709.38;5014618;28;103710;-70
2022/10/22 08:18:40;;;;;;;1.27;1.00;;;;;;;19.01;79.44;98710.44;5015348;28;103303;-72
2022/10/22 08:21:07;;;;;;;1.40;0.80;;;;;;;18.68;79.64;98712.19;5007834;27;103309;-69
2022/10/22 08:23:37;;;;;;;1.27;0.80;;;;;;;18.81;79.81;98709.88;5013504;27;105145;-73
2022/10/22 08:26:06;;;;;;;1.65;1.17;;;;;;;19.39;78.62;98711.72;5012079;28;103896;-72
2022/10/22 08:28:35;;;;;;;2.33;1.00;;;;;;;19.10;78.37;98718.34;5011207;28;103247;-73
2022/10/22 08:31:08;;;;;;;2.95;1.02;;;;;;;19.28;78.54;98717.38;5043265;27;103657;-72
2022/10/22 08:33:37;;;;;;;1.98;1.05;;;;;;;19.56;77.67;98708.06;5013869;28;102882;-68
2022/10/22 08:36:06;;;;;;;4.50;1.17;;;;;;;20.30;73.63;98709.66;5014651;27;104036;-71
2022/10/22 08:38:34;;;;;;;1.70;1.10;;;;;;;20.51;73.01;98712.63;5013948;28;103041;-72
2022/10/22 08:41:09;;;;;;;2.05;0.80;;;;;;;20.53;72.75;98713.28;5013408;28;103212;-71
2022/10/22 08:44:01;;;;;;;1.00;0.80;;;;;;;19.95;73.56;98719.78;5028027;27;104009;-72
2022/10/22 08:46:47;;;;;;;2.67;0.70;;;;;;;20.32;72.54;98716.56;5011435;27;104244;-71
2022/10/22 08:49:21;;;;;;;2.88;1.30;;;;;;;20.18;73.27;98715.34;5013943;27;103163;-71
2022/10/22 08:51:49;;;;;;;2.42;0.80;;;;;;;20.41;74.33;98714.66;5013481;27;102979;-72
2022/10/22 08:54:25;;;;;;;1.35;0.80;;;;;;;20.37;71.97;98713.34;5015802;27;102892;-71
2022/10/22 08:57:09;;;;;;;1.23;0.80;;;;;;;20.53;71.84;98715.97;5013950;27;104198;-72
2022/10/22 08:59:45;;;;;;;0.73;0.70;;;;;;;20.49;70.82;98711.97;5031297;27;102864;-72
2022/10/22 09:02:30;;;;;;;1.60;0.65;;;;;;;20.66;70.23;98713.59;5009501;28;102975;-72
2022/10/22 09:05:06;;;;;;;3.30;0.70;;;;;;;20.91;70.09;98717.84;5008753;27;102768;-71
2022/10/22 09:07:41;;;;;;;1.17;0.70;;;;;;;20.55;70.14;98716.63;5009477;28;104075;-71
2022/10/22 09:10:12;;;;;;;1.38;0.60;;;;;;;20.95;70.36;98727.19;5011993;28;103186;-71
2022/10/22 09:12:40;;;;;;;1.80;0.70;;;;;;;21.50;68.11;98712.78;5011857;27;102767;-72
2022/10/22 09:15:13;;;;;;;3.35;0.73;;;;;;;20.99;68.81;98723.16;5011868;28;102730;-72
2022/10/22 09:17:56;;;;;;;1.50;0.52;;;;;;;21.64;68.42;98712.00;5011179;28;103381;-71
2022/10/22 09:20:33;;;;;;;3.70;0.70;;;;;;;21.61;67.86;98715.06;5012756;27;103034;-72
2022/10/22 09:23:16;;;;;;;0.47;0.40;;;;;;;21.52;67.69;98724.19;5012540;27;102694;-71
2022/10/22 09:25:45;;;;;;;0.60;0.60;;;;;;;20.97;67.51;98727.03;5011590;28;102699;-71
2022/10/22 09:28:16;;;;;;;2.83;0.52;;;;;;;21.53;68.11;98723.19;5015632;28;104353;-71
2022/10/22 09:30:44;;;;;;;0.68;0.68;;;;;;;21.51;68.73;98730.56;5013916;27;103167;-71
2022/10/22 09:33:16;;;;;;;2.08;0.63;;;;;;;21.57;66.93;98725.31;5017066;27;102670;-71
2022/10/22 09:35:52;;;;;;;0.75;0.52;;;;;;;21.43;67.17;98727.94;5030775;27;103793;-71
2022/10/22 09:38:30;;;;;;;1.58;0.52;;;;;;;21.59;65.18;98727.81;5012016;28;103770;-72
2022/10/22 09:41:02;;;;;;;1.45;0.70;;;;;;;21.75;66.21;98735.78;5009426;28;103188;-71
2022/10/22 09:43:34;;;;;;;0.68;0.60;;;;;;;21.90;67.16;98731.28;5008061;28;102971;-72
2022/10/22 09:46:07;;;;;;;2.80;0.70;;;;;;;21.93;65.68;98730.94;5009583;28;103345;-71
2022/10/22 09:48:41;;;;;;;5.03;0.77;;;;;;;22.03;64.02;98731.53;5013100;28;103766;-72
2022/10/22 09:51:15;;;;;;;0.50;0.50;;;;;;;22.37;64.07;98734.53;5011177;28;103970;-72
2022/10/22 09:53:44;;;;;;;2.83;0.98;;;;;;;22.05;64.10;98739.41;5010604;28;103081;-71
2022/10/22 09:56:21;;;;;;;2.03;0.50;;;;;;;22.48;64.76;98736.75;5011122;28;103000;-71
2022/10/22 09:58:50;;;;;;;1.38;0.30;;;;;;;22.89;63.27;98745.22;5013040;28;103992;-71
2022/10/22 10:01:21;;;;;;;0.75;0.60;;;;;;;22.56;63.39;98748.47;5015387;28;103544;-71
2022/10/22 10:03:51;;;;;;;1.02;0.70;;;;;;;22.52;61.41;98748.84;5010787;27;103322;-72
2022/10/22 10:06:20;;;;;;;1.92;0.70;;;;;;;22.74;63.37;98754.31;5013688;28;104170;-71
2022/10/22 10:08:49;;;;;;;2.30;0.65;;;;;;;22.95;61.84;98754.41;5010349;28;104157;-72
2022/10/22 10:11:27;;;;;;;2.55;0.60;;;;;;;23.09;59.72;98751.72;5013549;28;103717;-71
2022/10/22 10:14:09;;;;;;;0.52;0.52;;;;;;;22.68;62.73;98757.78;5015830;27;103547;-71
2022/10/22 10:16:45;;;;;;;0.55;0.50;;;;;;;22.73;59.76;98756.22;5026938;27;104309;-71
2022/10/22 10:19:33;;;;;;;1.23;0.60;;;;;;;22.79;58.21;98763.53;5012466;27;104228;-72
2022/10/22 10:22:10;;;;;;;1.42;0.47;;;;;;;22.60;59.04;98766.75;5010392;27;103447;-72
2022/10/22 10:24:57;;;;;;;0.63;0.40;;;;;;;22.89;58.98;98766.78;5012555;28;103069;-72
2022/10/22 10:27:30;;;;;;;0.63;0.40;;;;;;;22.94;58.49;98764.34;5012220;28;103536;-72
2022/10/22 10:30:02;;;;;;;1.25;0.60;;;;;;;22.96;59.08;98764.19;5014740;28;103376;-71
2022/10/22 10:32:52;;;;;;;2.75;0.57;;;;;;;23.29;57.72;98770.81;5013368;28;104345;-72
2022/10/22 10:35:26;;;;;;;0.63;0.47;;;;;;;23.18;58.15;98771.31;5012647;28;102811;-71
2022/10/22 10:38:09;;;;;;;0.82;0.55;;;;;;;23.26;57.85;98771.19;5012549;27;104001;-72
2022/10/22 10:40:44;;;;;;;0.50;0.50;;;;;;;23.06;56.81;98770.09;5012487;28;103340;-71
2022/10/22 10:43:17;;;;;;;2.15;0.40;;;;;;;23.12;59.02;98772.06;5013427;28;103385;-71
2022/10/22 10:45:54;;;;;;;2.08;0.70;;;;;;;22.60;56.75;98777.50;5012557;27;102970;-71
2022/10/22 10:48:36;;;;;;;0.95;0.50;;;;;;;23.00;59.79;98776.25;5012052;27;102785;-71
2022/10/22 10:51:23;;;;;;;1.10;0.50;;;;;;;23.47;59.31;98781.19;5013931;28;104345;-72
2022/10/22 10:54:14;;;;;;;1.35;0.60;;;;;;;24.35;56.67;98780.81;5014606;27;103427;-72
2022/10/22 10:56:50;;;;;;;2.67;0.65;;;;;;;23.78;57.10;98786.28;5013262;28;102778;-72
2022/10/22 10:59:29;;;;;;;2.40;1.02;;;;;;;24.07;56.25;98788.84;5012884;28;102827;-71
2022/10/22 11:02:15;;;;;;;0.60;0.60;;;;;;;23.79;54.88;98775.31;5026038;27;103324;-72
2022/10/22 11:05:04;;;;;;;1.15;1.05;;;;;;;24.22;55.26;98789.66;5043460;27;103262;-72
2022/10/22 11:07:40;;;;;;;1.17;0.60;;;;;;;22.78;56.59;98782.56;5010733;28;102721;-72
2022/10/22 11:10:19;;;;;;;2.80;0.70;;;;;;;22.75;58.84;98777.56;5009945;27;104763;-72
2022/10/22 11:17:08;;;;;;;1.83;0.60;;;;;;;23.19;54.33;98772.94;5009899;27;103035;-72
2022/10/22 11:19:42;;;;;;;0.98;0.65;;;;;;;23.81;56.18;98773.25;5011993;27;102703;-72
2022/10/22 11:22:26;;;;;;;0.90;0.50;;;;;;;24.65;52.76;98772.28;5008738;27;102815;-71
2022/10/22 11:25:01;;;;;;;2.05;0.60;;;;;;;24.48;51.76;98776.31;5008309;27;103835;-71
2022/10/22 11:27:35;;;;;;;1.17;0.70;;;;;;;23.39;53.41;98779.44;5007026;27;103261;-72
2022/10/22 11:30:08;;;;;;;0.75;0.60;;;;;;;23.66;54.51;98769.78;5008631;27;103106;-72
2022/10/22 11:32:38;;;;;;;1.85;0.70;;;;;;;24.47;54.18;98773.84;5012139;27;104463;-71
2022/10/22 11:35:11;;;;;;;3.83;0.85;;;;;;;24.30;54.20;98772.47;5013450;27;103947;-72
2022/10/22 11:37:39;;;;;;;1.45;0.88;;;;;;;24.26;53.37;98766.63;5012483;27;102741;-72
2022/10/22 11:40:16;;;;;;;0.80;0.50;;;;;;;24.52;52.77;98765.97;5010069;27;102758;-71
2022/10/22 11:42:49;;;;;;;1.15;0.55;;;;;;;23.57;55.61;98757.47;5008174;27;104205;-73
2022/10/22 11:45:33;;;;;;;2.03;0.80;;;;;;;24.33;55.22;98767.50;5008827;27;103304;-73
2022/10/22 11:48:14;;;;;;;3.20;0.98;;;;;;;24.07;53.49;98762.72;5010157;27;103254;-73